Terminal Aerodrome Forecast
Issued by NWS Wilmington, OH

Current Version | Previous Version | Graphics & Text | Print | Product List | Glossary On
Versions: 1 2 3 4 5 6 7 8 9 10 11 12 13 14 15 16 17 18 19 20
000
FTUS41 KILN 232123 AAB
TAFILN
TAF AMD
KILN 232123Z 2321/2418 21010KT P6SM BKN040
     FM241100 19011KT P6SM BKN080
     FM241500 19014G24KT P6SM BKN028=

USA.gov is the U.S. government's official web portal to all federal, state and local government web resources and services.